Time;durP1;ratioP1;P1;durP2;ratioP2;P2;SDS_P1;SDS_P2;PMS_P1;PMS_P2;Temp;Humidity;BMP_temperature;BMP_pressure;BME280_temperature;BME280_humidity;BME280_pressure;Samples;Min_cycle;Max_cycle;Signal;HPM_P1;HPM_P2
2023/04/17 00:01:56;84757.00;0.28;147.25;0.00;0.00;0.62;;;;;11.70;4.40;;;;;;2263481;60;1754;-87
2023/04/17 00:04:23;138510.00;0.46;240.00;0.00;0.00;0.62;;;;;12.10;3.20;;;;;;2263687;60;993;-87
2023/04/17 00:06:52;229229.00;0.76;396.22;41551.00;0.14;72.57;;;;;12.10;2.10;;;;;;2263319;60;1067;-85
2023/04/17 00:09:19;332173.00;1.11;573.22;28720.00;0.10;50.37;;;;;11.90;3.70;;;;;;2263568;60;1110;-87
2023/04/17 00:11:48;145531.00;0.49;252.11;0.00;0.00;0.62;;;;;11.80;3.40;;;;;;2264189;60;2196;-88
2023/04/17 00:14:15;186343.00;0.62;322.41;0.00;0.00;0.62;;;;;11.50;4.90;;;;;;2264196;60;1554;-88
2023/04/17 00:16:41;450445.00;1.50;776.55;0.00;0.00;0.62;;;;;11.20;6.70;;;;;;2264233;60;1074;-88
2023/04/17 00:19:08;234273.00;0.78;404.90;0.00;0.00;0.62;;;;;11.10;7.20;;;;;;2264223;60;1911;-88
2023/04/17 00:21:35;326205.00;1.09;562.96;0.00;0.00;0.62;;;;;11.20;7.00;;;;;;2264160;60;1419;-88
2023/04/17 00:24:02;91412.00;0.30;158.75;0.00;0.00;0.62;;;;;11.50;6.00;;;;;;2264293;60;1125;-87
2023/04/17 00:26:31;1409087.00;4.70;2473.19;169430.00;0.56;293.28;;;;;11.30;5.60;;;;;;2264249;60;1415;-87
2023/04/17 00:31:28;1565412.00;5.22;2766.82;39427.00;0.13;68.90;;;;;11.10;6.50;;;;;;2265786;60;1388;-87
2023/04/17 00:33:57;1683765.00;5.61;2993.92;186537.00;0.62;322.75;;;;;11.20;7.20;;;;;;2264321;60;945;-89
2023/04/17 00:36:24;909592.00;3.03;1572.97;133120.00;0.44;230.71;;;;;11.50;5.70;;;;;;2264212;60;2368;-88
2023/04/17 00:38:51;345211.00;1.15;595.63;94872.00;0.32;164.72;;;;;11.50;4.80;;;;;;2264185;60;1098;-88
2023/04/17 00:41:18;516109.00;1.72;889.56;109006.00;0.36;189.11;;;;;11.40;5.30;;;;;;2263993;60;2023;-89
2023/04/17 00:43:45;239079.00;0.80;413.17;0.00;0.00;0.62;;;;;11.40;5.50;;;;;;2264197;60;1222;-87
2023/04/17 00:48:44;430847.00;1.44;742.84;0.00;0.00;0.62;;;;;11.20;5.70;;;;;;2265622;60;1486;-89
2023/04/17 00:51:11;159019.00;0.53;275.35;0.00;0.00;0.62;;;;;11.00;7.40;;;;;;2264150;60;1647;-87
2023/04/17 00:58:36;481118.00;1.60;829.32;0.00;0.00;0.62;;;;;10.90;7.90;;;;;;2266034;60;1371;-88
2023/04/17 01:03:32;641570.00;2.14;1106.05;15756.00;0.05;27.92;;;;;10.80;8.10;;;;;;2265751;60;1427;-88
2023/04/17 01:08:41;327652.00;1.09;565.45;0.00;0.00;0.62;;;;;11.00;7.40;;;;;;2270165;61;1286;-88
2023/04/17 01:13:44;560961.00;1.87;966.86;28360.00;0.09;49.74;;;;;10.90;8.90;;;;;;2283229;61;1334;-89
2023/04/17 01:18:39;430755.00;1.44;742.68;0.00;0.00;0.62;;;;;10.90;7.90;;;;;;2282066;61;1412;-87
2023/04/17 01:26:18;548498.00;1.83;945.37;0.00;0.00;0.62;;;;;10.90;8.90;;;;;;2287540;55;3620;-87
2023/04/17 01:28:50;167156.00;0.56;289.37;0.00;0.00;0.62;;;;;11.00;9.40;;;;;;2284504;60;1034;-89
2023/04/17 01:33:47;660642.00;2.20;1139.05;9360.00;0.03;16.84;;;;;10.80;8.70;;;;;;2281900;61;1478;-88
2023/04/17 01:38:42;1237490.00;4.12;2158.15;147740.00;0.49;255.91;;;;;10.90;8.20;;;;;;2282117;61;1441;-87
2023/04/17 01:43:42;2320521.00;7.74;4304.58;96230.00;0.32;167.06;;;;;10.80;8.70;;;;;;746533;56;3570;-87
2023/04/17 01:46:09;963662.00;3.21;1668.22;47322.00;0.16;82.55;;;;;10.80;9.00;;;;;;2284286;60;1701;-88
2023/04/17 01:48:36;396476.00;1.32;683.75;96715.00;0.32;167.90;;;;;11.00;7.80;;;;;;2284551;60;1582;-87
2023/04/17 01:53:32;960418.00;3.20;1662.49;90923.00;0.30;157.90;;;;;11.30;6.00;;;;;;2282176;61;1394;-87
2023/04/17 01:58:28;596636.00;1.99;1028.41;92461.00;0.31;160.56;;;;;11.00;8.30;;;;;;2381724;55;3672;-87
2023/04/17 02:03:26;508062.00;1.69;875.71;0.00;0.00;0.62;;;;;10.20;11.00;;;;;;2281788;61;1375;-88
2023/04/17 02:08:21;317828.00;1.06;548.56;0.00;0.00;0.62;;;;;10.70;10.50;;;;;;2282222;61;1396;-87
2023/04/17 02:10:47;234138.00;0.78;404.67;0.00;0.00;0.62;;;;;10.90;9.00;;;;;;2280328;61;1043;-88
2023/04/17 02:13:14;333488.00;1.11;575.48;0.00;0.00;0.62;;;;;10.80;9.60;;;;;;2280302;61;1479;-88
2023/04/17 02:15:42;190718.00;0.64;329.94;0.00;0.00;0.62;;;;;11.00;9.40;;;;;;2280360;61;2356;-87
2023/04/17 02:18:09;212040.00;0.71;366.65;0.00;0.00;0.62;;;;;11.10;8.90;;;;;;2287925;55;3749;-90
2023/04/17 02:20:38;139377.00;0.46;241.50;0.00;0.00;0.62;;;;;11.00;9.00;;;;;;2288390;60;2105;-88
2023/04/17 02:23:06;317082.00;1.06;547.28;12852.00;0.04;22.89;;;;;11.00;10.30;;;;;;2288456;60;1402;-86
2023/04/17 02:25:34;160155.00;0.53;277.31;0.00;0.00;0.62;;;;;10.90;9.40;;;;;;2288417;60;1081;-88
2023/04/17 02:28:01;237036.00;0.79;409.65;0.00;0.00;0.62;;;;;11.00;9.70;;;;;;2288506;60;1591;-88
2023/04/17 02:30:28;156269.00;0.52;270.61;0.00;0.00;0.62;;;;;11.20;7.70;;;;;;2288419;60;1679;-88
2023/04/17 02:32:56;277266.00;0.92;478.84;0.00;0.00;0.62;;;;;11.00;8.70;;;;;;2288308;60;1282;-88
2023/04/17 02:35:25;256295.00;0.85;442.78;0.00;0.00;0.62;;;;;11.10;7.60;;;;;;2288452;60;1041;-87
2023/04/17 02:37:54;224374.00;0.75;387.87;0.00;0.00;0.62;;;;;11.30;8.30;;;;;;2288536;60;2185;-87
2023/04/17 02:40:20;326283.00;1.09;563.10;17258.00;0.06;30.52;;;;;11.70;5.50;;;;;;2288541;60;1913;-89
2023/04/17 02:42:47;139639.00;0.47;241.95;16970.00;0.06;30.02;;;;;12.00;4.80;;;;;;2288236;60;1447;-88
2023/04/17 02:45:14;117073336.00;390.24;64997896.00;0.00;0.00;0.62;;;;;12.20;2.70;;;;;;2288559;60;1015;-88
2023/04/17 02:47:41;240947.00;0.80;416.38;0.00;0.00;0.62;;;;;12.10;1.60;;;;;;2288441;60;1677;-87
2023/04/17 02:50:09;157821.00;0.53;273.28;0.00;0.00;0.62;;;;;11.90;2.90;;;;;;2288613;60;901;-87
2023/04/17 02:52:36;146458.00;0.49;253.70;0.00;0.00;0.62;;;;;12.00;2.90;;;;;;2288301;60;1369;-87
2023/04/17 02:57:32;276311.00;0.92;477.19;0.00;0.00;0.62;;;;;11.50;4.20;;;;;;2281875;61;1617;-88
2023/04/17 03:00:00;148672.00;0.50;257.52;0.00;0.00;0.62;;;;;11.40;5.90;;;;;;2280320;61;1927;-86
2023/04/17 03:02:29;294745.00;0.98;508.89;0.00;0.00;0.62;;;;;11.50;6.00;;;;;;2297979;40;3742;-89
2023/04/17 03:04:56;235368.00;0.78;406.78;0.00;0.00;0.62;;;;;11.10;7.00;;;;;;2288772;60;1015;-86
2023/04/17 03:07:26;116337.00;0.39;201.76;0.00;0.00;0.62;;;;;11.10;8.00;;;;;;2288514;60;1505;-88
2023/04/17 03:09:56;257558.00;0.86;444.95;5140.00;0.02;9.53;;;;;11.30;7.10;;;;;;2288550;60;1101;-87
2023/04/17 03:14:53;342875.00;1.14;591.62;0.00;0.00;0.62;;;;;11.00;6.00;;;;;;2282437;61;1403;-87
2023/04/17 03:17:20;1091035.00;3.64;1894.40;118317.00;0.39;205.18;;;;;11.30;6.50;;;;;;2280576;61;1012;-88
2023/04/17 03:19:47;1089086.00;3.63;1890.92;65893.00;0.22;114.66;;;;;11.30;6.10;;;;;;2280437;61;927;-89
2023/04/17 03:22:14;1186146.00;3.95;2065.19;83758.00;0.28;145.53;;;;;11.00;6.40;;;;;;2280560;61;2026;-88
2023/04/17 03:24:41;1008670.00;3.36;1747.83;83759.00;0.28;145.53;;;;;11.40;6.40;;;;;;2280531;61;1642;-87
2023/04/17 03:27:08;1195486.00;3.98;2082.06;50627.00;0.17;88.27;;;;;11.60;4.90;;;;;;2280634;61;1030;-87
2023/04/17 03:29:35;1161267.00;3.87;2020.35;100817.00;0.34;174.98;;;;;11.40;4.00;;;;;;2280544;61;919;-88
2023/04/17 03:32:03;1281187.00;4.27;2237.72;116045.00;0.39;201.26;;;;;11.70;3.40;;;;;;2280449;61;1397;-87
2023/04/17 03:34:31;1321989.00;4.41;2312.40;128333.00;0.43;222.45;;;;;11.60;3.70;;;;;;2280410;61;1034;-89
2023/04/17 03:36:58;1683516.00;5.61;2993.44;211330.00;0.70;365.42;;;;;11.80;2.40;;;;;;2280400;61;981;-88
2023/04/17 03:39:25;856040.00;2.85;1479.04;106321.00;0.35;184.48;;;;;11.60;3.90;;;;;;2280389;61;1020;-87
2023/04/17 03:41:52;452088.00;1.51;779.37;90853.00;0.30;157.78;;;;;11.80;2.80;;;;;;2280362;61;1992;-87
2023/04/17 03:44:19;574485.00;1.91;990.18;87080.00;0.29;151.27;;;;;12.00;2.00;;;;;;2280641;61;1619;-88
2023/04/17 03:46:46;606860.00;2.02;1046.07;107018.00;0.36;185.68;;;;;12.00;1.00;;;;;;2281055;61;1045;-87
2023/04/17 03:49:14;578765.00;1.93;997.57;88676.00;0.30;154.02;;;;;12.20;1.70;;;;;;2281028;61;1540;-88
2023/04/17 03:51:42;402177.00;1.34;693.55;99798.00;0.33;173.22;;;;;11.80;1.70;;;;;;2281039;61;1337;-87
2023/04/17 03:54:09;359828.00;1.20;620.75;89645.00;0.30;155.69;;;;;11.60;2.60;;;;;;2281003;61;1123;-88
2023/04/17 03:56:37;493684.00;1.65;850.95;80389.00;0.27;139.71;;;;;11.50;2.90;;;;;;2280927;61;1095;-89
2023/04/17 03:59:04;460301.00;1.53;793.50;103479.00;0.34;179.58;;;;;11.30;4.60;;;;;;2281132;61;1048;-87
2023/04/17 04:01:31;407147.00;1.36;702.09;84715.00;0.28;147.18;;;;;11.30;4.60;;;;;;2280748;61;1907;-87
2023/04/17 04:03:58;421904.00;1.41;727.46;90220.00;0.30;156.69;;;;;11.20;4.10;;;;;;2281011;61;2076;-87
2023/04/17 04:06:28;438265.00;1.46;755.60;96922.00;0.32;168.26;;;;;11.30;4.90;;;;;;2296186;39;3598;-87
2023/04/17 04:08:56;262790.00;0.88;453.95;41627.00;0.14;72.70;;;;;11.10;5.50;;;;;;2285064;60;1199;-88
2023/04/17 04:11:22;334027.00;1.11;576.41;0.00;0.00;0.62;;;;;11.20;6.90;;;;;;2284948;60;1667;-87
2023/04/17 04:13:49;164217.00;0.55;284.30;0.00;0.00;0.62;;;;;11.20;5.60;;;;;;2281015;61;1401;-87
2023/04/17 04:18:52;373488.00;1.24;644.23;0.00;0.00;0.62;;;;;11.20;4.80;;;;;;2007117;59;2764;-87
2023/04/17 04:21:18;235259.00;0.78;406.60;0.00;0.00;0.62;;;;;11.00;6.00;;;;;;2284913;60;1998;-87
2023/04/17 04:23:48;315798.00;1.05;545.08;0.00;0.00;0.62;;;;;11.20;6.00;;;;;;2285021;60;1422;-87
2023/04/17 04:26:16;467284.00;1.56;805.52;0.00;0.00;0.62;;;;;11.40;5.40;;;;;;2284974;60;1127;-88
2023/04/17 04:28:43;122015.00;0.41;211.56;0.00;0.00;0.62;;;;;11.40;4.80;;;;;;2284980;60;1123;-87
2023/04/17 04:31:10;120981.00;0.40;209.77;0.00;0.00;0.62;;;;;11.20;6.50;;;;;;2284938;60;939;-87
2023/04/17 04:33:37;231985.00;0.77;400.96;8015.00;0.03;14.51;;;;;11.20;5.70;;;;;;2284869;60;1377;-86
2023/04/17 04:36:04;160522.00;0.54;277.94;0.00;0.00;0.62;;;;;11.40;5.70;;;;;;2284959;60;970;-88
2023/04/17 04:38:31;458271.00;1.53;790.01;89867.00;0.30;156.08;;;;;11.30;4.70;;;;;;2283896;40;3567;-87
2023/04/17 04:41:04;116089.00;0.39;201.34;0.00;0.00;0.62;;;;;11.30;5.30;;;;;;2280826;61;2003;-90
2023/04/17 04:43:33;273112.00;0.91;471.69;0.00;0.00;0.62;;;;;11.30;4.90;;;;;;2284589;39;3660;-89
2023/04/17 04:45:59;495945.00;1.65;854.84;52273.00;0.17;91.12;;;;;11.20;5.00;;;;;;2267987;60;1655;-88
2023/04/17 04:48:27;137634.00;0.46;238.49;0.00;0.00;0.62;;;;;11.40;5.60;;;;;;2268327;60;1090;-86
2023/04/17 04:50:54;191997.00;0.64;332.15;0.00;0.00;0.62;;;;;11.70;4.70;;;;;;2268327;60;930;-87
2023/04/17 04:53:21;184918.00;0.62;319.96;0.00;0.00;0.62;;;;;11.90;2.90;;;;;;2268330;60;1271;-89
2023/04/17 04:55:48;284642.00;0.95;491.52;0.00;0.00;0.62;;;;;12.10;2.10;;;;;;2282767;55;3724;-88
2023/04/17 04:58:17;256009.00;0.85;442.29;0.00;0.00;0.62;;;;;12.10;1.40;;;;;;2289003;60;1030;-88
2023/04/17 05:00:44;201395.00;0.67;348.32;0.00;0.00;0.62;;;;;12.10;1.00;;;;;;2288893;60;1985;-86
2023/04/17 05:03:11;834580.00;2.78;1441.50;0.00;0.00;0.62;;;;;11.80;1.60;;;;;;2288841;60;1566;-89
2023/04/17 05:05:38;171802.00;0.57;297.37;0.00;0.00;0.62;;;;;11.90;2.60;;;;;;2289028;60;1172;-86
2023/04/17 05:08:06;238500.00;0.80;412.17;48110.00;0.16;83.92;;;;;12.10;2.60;;;;;;2288964;60;1305;-87
2023/04/17 05:10:33;176590.00;0.59;305.62;0.00;0.00;0.62;;;;;12.40;1.00;;;;;;2288920;60;912;-87
2023/04/17 05:13:00;427570.00;1.43;737.21;41876.00;0.14;73.13;;;;;12.40;1.00;;;;;;2288866;60;1394;-87
2023/04/17 05:15:28;796458.00;2.65;1374.95;41271.00;0.14;72.09;;;;;12.20;1.60;;;;;;2289007;60;1033;-87
2023/04/17 05:17:55;681597.00;2.27;1175.34;51766.00;0.17;90.24;;;;;12.40;1.00;;;;;;2288872;60;1715;-87
2023/04/17 05:20:22;913555.00;3.05;1579.94;69686.00;0.23;121.22;;;;;12.20;1.00;;;;;;2288769;60;1631;-88
2023/04/17 05:22:49;1050631.00;3.50;1822.36;73435.00;0.24;127.70;;;;;12.10;1.50;;;;;;2288754;60;1998;-88
2023/04/17 05:27:45;1029184.00;3.43;1784.23;13172.00;0.04;23.44;;;;;12.10;1.00;;;;;;2282290;61;1489;-87
2023/04/17 05:30:13;849349.00;2.83;1467.33;44660.00;0.15;77.95;;;;;12.20;1.00;;;;;;2280644;61;1020;-87
2023/04/17 05:32:41;868005.00;2.89;1499.99;10238.00;0.03;18.36;;;;;12.20;1.00;;;;;;2280647;61;1592;-87
2023/04/17 05:35:08;905194.00;3.02;1565.24;39913.00;0.13;69.74;;;;;12.10;1.00;;;;;;2280639;61;2290;-88
2023/04/17 05:37:35;1011111.00;3.37;1752.16;76760.00;0.26;133.44;;;;;12.50;1.00;;;;;;2280672;61;1130;-89
2023/04/17 05:40:05;1048578.00;3.50;1818.70;164364.00;0.55;284.56;;;;;12.60;1.00;;;;;;2280592;61;942;-88
2023/04/17 05:45:00;984143.00;3.28;1704.41;75658.00;0.25;131.54;;;;;12.30;1.00;;;;;;2265824;60;1407;-86
2023/04/17 05:49:58;1312796.00;4.38;2295.54;39668.00;0.13;69.31;;;;;11.60;2.80;;;;;;2324945;41;3454;-87
2023/04/17 05:52:25;786281.00;2.62;1357.21;23320.00;0.08;41.02;;;;;11.50;2.70;;;;;;2284656;60;1298;-86
2023/04/17 05:54:52;1253961.00;4.18;2188.09;119228.00;0.40;206.75;;;;;11.50;4.00;;;;;;2284629;60;1566;-86
2023/04/17 05:57:19;1077346.00;3.59;1869.96;78250.00;0.26;136.01;;;;;11.30;4.50;;;;;;2284703;60;963;-85
2023/04/17 05:59:47;1094402.00;3.65;1900.42;36781.00;0.12;64.32;;;;;11.20;4.90;;;;;;2284670;60;1083;-87
2023/04/17 06:02:15;1454130.00;4.85;2557.10;273536.00;0.91;472.42;;;;;11.40;5.70;;;;;;2284664;60;1994;-88
2023/04/17 06:04:42;1606857.00;5.36;2845.85;213581.00;0.71;369.30;;;;;11.40;4.30;;;;;;2284852;60;899;-88
2023/04/17 06:07:11;876592.00;2.92;1515.04;147673.00;0.49;255.80;;;;;11.60;4.70;;;;;;2284662;60;1605;-90
2023/04/17 06:09:39;988689.00;3.30;1712.45;142802.00;0.48;247.40;;;;;11.80;3.40;;;;;;2284533;60;1651;-87
2023/04/17 06:12:14;536373.00;1.79;924.47;97368.00;0.32;169.03;;;;;11.80;3.90;;;;;;2284640;60;1394;-86
2023/04/17 06:14:41;930912.00;3.10;1610.48;143931.00;0.48;249.35;;;;;11.90;2.30;;;;;;2284727;60;1122;-88
2023/04/17 06:17:08;118040240.00;393.47;66623152.00;134610.00;0.45;233.28;;;;;11.60;3.20;;;;;;2284566;60;1047;-87
2023/04/17 06:19:35;610708.00;2.04;1052.71;78400.00;0.26;136.27;;;;;11.20;5.30;;;;;;2284617;60;1009;-87
2023/04/17 06:22:02;332765.00;1.11;574.24;77319.00;0.26;134.41;;;;;11.20;5.70;;;;;;2284435;60;2002;-87
2023/04/17 06:24:30;702659.00;2.34;1211.85;91281.00;0.30;158.52;;;;;11.40;5.80;;;;;;2284555;60;1594;-86
2023/04/17 06:26:57;185758.00;0.62;321.40;0.00;0.00;0.62;;;;;11.30;4.30;;;;;;2284603;60;1126;-86
2023/04/17 06:29:24;205501.00;0.69;355.39;0.00;0.00;0.62;;;;;11.00;7.40;;;;;;2284483;60;1049;-88
2023/04/17 06:31:51;185139.00;0.62;320.34;0.00;0.00;0.62;;;;;11.00;7.40;;;;;;2284499;60;1734;-88
2023/04/17 06:34:18;287559.00;0.96;496.53;0.00;0.00;0.62;;;;;11.10;7.50;;;;;;2284598;60;1070;-87
2023/04/17 06:36:45;178896.00;0.60;309.59;0.00;0.00;0.62;;;;;11.20;6.30;;;;;;2284458;60;1063;-88
2023/04/17 06:39:12;211304.00;0.70;365.38;0.00;0.00;0.62;;;;;10.80;8.40;;;;;;2284516;60;1540;-87
2023/04/17 06:41:40;85252.00;0.28;148.11;0.00;0.00;0.62;;;;;11.20;8.50;;;;;;2284501;60;1998;-86
2023/04/17 06:44:07;94344.00;0.31;163.81;0.00;0.00;0.62;;;;;11.50;6.50;;;;;;2284560;60;1018;-86
2023/04/17 06:46:34;180279.00;0.60;311.97;0.00;0.00;0.62;;;;;11.60;6.10;;;;;;2284544;60;2197;-86
2023/04/17 06:49:01;145613.00;0.49;252.25;0.00;0.00;0.62;;;;;11.60;4.70;;;;;;2284529;60;1581;-87
2023/04/17 06:51:28;255542.00;0.85;441.48;0.00;0.00;0.62;;;;;11.30;5.70;;;;;;2284426;60;1686;-87
2023/04/17 06:53:55;215164.00;0.72;372.02;0.00;0.00;0.62;;;;;11.50;7.00;;;;;;2284535;60;1132;-86
2023/04/17 06:56:23;209146.00;0.70;361.67;0.00;0.00;0.62;;;;;11.70;4.90;;;;;;2284459;60;1006;-86
2023/04/17 06:58:52;141092.00;0.47;244.45;0.00;0.00;0.62;;;;;11.40;6.40;;;;;;2284459;60;990;-87
2023/04/17 07:01:19;175416.00;0.58;303.60;0.00;0.00;0.62;;;;;11.20;7.20;;;;;;2284533;60;1914;-86
2023/04/17 07:03:46;225249.00;0.75;389.37;0.00;0.00;0.62;;;;;11.20;7.80;;;;;;2284395;60;1708;-88
2023/04/17 07:06:13;326465.00;1.09;563.41;0.00;0.00;0.62;;;;;11.40;5.50;;;;;;2287012;39;3586;-90
2023/04/17 07:08:40;300997.00;1.00;519.63;0.00;0.00;0.62;;;;;11.00;8.10;;;;;;2284470;60;1571;-86
2023/04/17 07:11:07;136805.00;0.46;237.06;0.00;0.00;0.62;;;;;11.10;8.90;;;;;;2284623;60;1054;-87
2023/04/17 07:13:34;437632.00;1.46;754.51;0.00;0.00;0.62;;;;;11.20;7.30;;;;;;2284423;60;1753;-88
2023/04/17 07:18:30;434745.00;1.45;749.55;0.00;0.00;0.62;;;;;10.90;8.90;;;;;;2265666;60;1406;-86
2023/04/17 07:20:57;348967.00;1.16;602.09;0.00;0.00;0.62;;;;;11.20;9.30;;;;;;2263860;60;1743;-86
2023/04/17 07:23:24;163442.00;0.54;282.97;0.00;0.00;0.62;;;;;11.40;7.20;;;;;;2263838;60;1932;-89
2023/04/17 07:25:51;361197.00;1.20;623.11;15054.00;0.05;26.70;;;;;11.50;7.20;;;;;;2263894;60;1860;-87
2023/04/17 07:28:18;385467.00;1.28;664.82;0.00;0.00;0.62;;;;;11.30;7.00;;;;;;2263830;60;1721;-87
2023/04/17 07:30:45;198477.00;0.66;343.30;0.00;0.00;0.62;;;;;11.20;8.40;;;;;;2263939;60;1143;-86
2023/04/17 07:33:12;392372.00;1.31;676.69;0.00;0.00;0.62;;;;;11.20;6.90;;;;;;2263942;60;1391;-86
2023/04/17 07:35:41;284771.00;0.95;491.74;0.00;0.00;0.62;;;;;10.90;9.60;;;;;;2263888;60;1106;-85
2023/04/17 07:38:08;106373.00;0.35;184.57;0.00;0.00;0.62;;;;;11.00;9.60;;;;;;2263998;60;1449;-86
2023/04/17 07:40:36;154838.00;0.52;268.14;0.00;0.00;0.62;;;;;10.90;10.60;;;;;;2263979;60;1543;-87
2023/04/17 07:43:03;828899.00;2.76;1431.57;61706.00;0.21;107.43;;;;;11.20;9.70;;;;;;2263951;60;1994;-87
2023/04/17 07:45:29;758827.00;2.53;1309.41;21433.00;0.07;37.75;;;;;11.30;9.80;;;;;;2263990;60;1031;-85
2023/04/17 07:47:56;1033037.00;3.44;1791.07;68950.00;0.23;119.95;;;;;11.90;7.70;;;;;;2264068;60;1011;-87
2023/04/17 07:50:23;1378915.00;4.60;2417.28;74992.00;0.25;130.39;;;;;12.00;5.20;;;;;;2264046;60;1067;-87
2023/04/17 07:52:52;1358794.00;4.53;2380.12;190102.00;0.63;328.88;;;;;11.60;6.70;;;;;;2263961;60;1401;-86
2023/04/17 07:55:18;858405.00;2.86;1483.18;170203.00;0.57;294.62;;;;;11.40;8.90;;;;;;2263925;60;1102;-87
2023/04/17 07:57:45;536949.00;1.79;925.47;94309.00;0.31;163.75;;;;;11.30;7.80;;;;;;2263952;60;1593;-86
2023/04/17 08:00:13;371212.00;1.24;640.32;99741.00;0.33;173.12;;;;;11.30;9.60;;;;;;2263939;60;1813;-85
2023/04/17 08:02:40;284666.00;0.95;491.56;91621.00;0.31;159.11;;;;;11.40;7.50;;;;;;2263903;60;1911;-87
2023/04/17 08:05:08;213224.00;0.71;368.68;93559.00;0.31;162.45;;;;;11.30;8.50;;;;;;2264015;60;2189;-86
2023/04/17 08:07:35;51987.00;0.17;90.62;0.00;0.00;0.62;;;;;11.40;7.80;;;;;;2263985;60;1113;-86
2023/04/17 08:12:33;462409.00;1.54;797.13;0.00;0.00;0.62;;;;;11.10;8.70;;;;;;2288839;40;3709;-88
2023/04/17 08:15:00;48352.00;0.16;84.34;0.00;0.00;0.62;;;;;11.00;9.70;;;;;;2267744;60;1667;-89
2023/04/17 08:17:28;212102.00;0.71;366.75;0.00;0.00;0.62;;;;;11.00;10.20;;;;;;2267894;60;1230;-86
2023/04/17 08:19:56;146863.00;0.49;254.40;0.00;0.00;0.62;;;;;11.10;9.50;;;;;;2267859;60;1099;-86
2023/04/17 08:22:24;157837.00;0.53;273.31;0.00;0.00;0.62;;;;;11.50;9.50;;;;;;2267906;60;1985;-87
2023/04/17 08:24:53;79303.00;0.26;137.83;0.00;0.00;0.62;;;;;11.80;8.40;;;;;;2267790;60;1643;-85
2023/04/17 08:27:20;271438.00;0.90;468.82;0.00;0.00;0.62;;;;;11.80;7.80;;;;;;2285641;55;3730;-87
2023/04/17 08:29:48;355577.00;1.19;613.45;0.00;0.00;0.62;;;;;11.50;7.80;;;;;;2282411;40;3599;-87
2023/04/17 08:32:15;214733.00;0.72;371.28;0.00;0.00;0.62;;;;;11.20;8.40;;;;;;2268359;60;1408;-86
2023/04/17 08:34:44;44654.00;0.15;77.94;0.00;0.00;0.62;;;;;11.50;8.30;;;;;;2268511;60;1154;-85
2023/04/17 08:37:11;283918.00;0.95;490.27;0.00;0.00;0.62;;;;;11.50;8.40;;;;;;2268494;60;1019;-87
2023/04/17 08:39:38;493742.00;1.65;851.05;7549.00;0.03;13.70;;;;;11.50;7.20;;;;;;2268362;60;1738;-86
2023/04/17 08:44:34;1973813.00;6.58;3570.69;251730.00;0.84;434.93;;;;;11.10;9.90;;;;;;2265947;60;1463;-86
2023/04/17 08:47:03;1279473.00;4.26;2234.59;211446.00;0.70;365.62;;;;;11.30;10.80;;;;;;2275548;55;3772;-88
2023/04/17 08:49:33;119612968.00;398.71;69324264.00;91893.00;0.31;159.58;;;;;11.30;10.20;;;;;;2312531;56;3720;-87
2023/04/17 08:52:03;311706.00;1.04;538.04;87275.00;0.29;151.60;;;;;11.50;10.30;;;;;;2296936;55;3766;-88
2023/04/17 08:54:30;191942.00;0.64;332.05;0.00;0.00;0.62;;;;;11.80;8.70;;;;;;2285064;60;1031;-86
2023/04/17 08:56:57;218609.00;0.73;377.95;0.00;0.00;0.62;;;;;11.90;6.70;;;;;;2295461;55;3772;-89
2023/04/17 08:59:24;417431.00;1.39;719.77;71998.00;0.24;125.21;;;;;11.60;8.40;;;;;;2284705;60;933;-87
2023/04/17 09:02:03;105628.00;0.35;183.29;0.00;0.00;0.62;;;;;11.60;7.50;;;;;;2323660;39;3770;-90
2023/04/17 09:04:38;29611.00;0.10;51.91;0.00;0.00;0.62;;;;;11.50;8.40;;;;;;2285043;60;965;-89
2023/04/17 09:07:05;175628.00;0.59;303.96;0.00;0.00;0.62;;;;;11.80;6.70;;;;;;2284936;60;1508;-87
2023/04/17 09:09:49;111190.00;0.37;192.88;0.00;0.00;0.62;;;;;12.00;6.20;;;;;;2284909;60;1711;-87
2023/04/17 09:12:16;241863.00;0.81;417.96;32805.00;0.11;57.44;;;;;12.00;5.50;;;;;;2285009;60;1288;-85
2023/04/17 09:20:07;1101031.00;3.67;1912.27;137437.00;0.46;238.15;;;;;11.20;8.20;;;;;;2286671;60;1663;-87
2023/04/17 09:22:35;906847.00;3.02;1568.15;106905.00;0.36;185.49;;;;;11.50;8.90;;;;;;2284898;60;2018;-86
2023/04/17 09:25:02;972256.00;3.24;1683.39;28612.00;0.10;50.18;;;;;11.80;7.00;;;;;;2284801;60;1717;-87
2023/04/17 09:27:29;1556369.00;5.19;2749.64;210631.00;0.70;364.22;;;;;11.90;7.00;;;;;;2284889;60;1643;-89
2023/04/17 09:29:58;1642663.00;5.48;2914.55;247421.00;0.82;427.52;;;;;11.80;6.40;;;;;;2284905;60;1027;-85
2023/04/17 09:32:26;637215.00;2.12;1098.52;81335.00;0.27;141.34;;;;;12.10;5.10;;;;;;2314884;40;3571;-86
2023/04/17 09:34:55;617672.00;2.06;1064.74;96716.00;0.32;167.90;;;;;11.90;5.80;;;;;;2294856;56;3791;-86
2023/04/17 09:37:24;117879.00;0.39;204.42;0.00;0.00;0.62;;;;;11.50;7.50;;;;;;2284866;60;988;-88
2023/04/17 09:39:58;190873.00;0.64;330.21;0.00;0.00;0.62;;;;;11.70;7.70;;;;;;2284942;60;1706;-87
2023/04/17 09:42:26;113839.00;0.38;197.45;0.00;0.00;0.62;;;;;11.90;6.20;;;;;;2284734;60;2004;-87
2023/04/17 09:44:53;193657.00;0.65;335.00;9476.00;0.03;17.04;;;;;12.50;4.90;;;;;;2284928;60;1587;-87
2023/04/17 09:47:21;102423.00;0.34;177.75;0.00;0.00;0.62;;;;;12.50;3.60;;;;;;2287500;39;3606;-86
2023/04/17 09:52:20;269716.00;0.90;465.86;0.00;0.00;0.62;;;;;12.10;4.00;;;;;;2277997;61;1338;-88
2023/04/17 10:02:22;1973293.00;6.58;3569.63;328001.00;1.09;566.05;;;;;11.70;7.10;;;;;;2269748;60;1984;-87
2023/04/17 10:04:49;1343258.00;4.48;2351.49;303113.00;1.01;523.27;;;;;12.00;5.80;;;;;;2268313;60;1019;-88
2023/04/17 10:07:16;390638.00;1.30;673.71;100958.00;0.34;175.23;;;;;12.30;4.80;;;;;;2268235;60;1043;-86
2023/04/17 10:09:45;362322.00;1.21;625.04;98511.00;0.33;171.00;;;;;12.40;3.30;;;;;;2268343;60;1104;-86
2023/04/17 10:12:14;181010.00;0.60;313.23;0.00;0.00;0.62;;;;;12.70;3.10;;;;;;2268049;60;1396;-86
2023/04/17 10:14:45;111998.00;0.37;194.28;0.00;0.00;0.62;;;;;12.70;1.90;;;;;;2268282;60;910;-90
2023/04/17 10:19:43;621907.00;2.07;1072.06;0.00;0.00;0.62;;;;;12.60;1.30;;;;;;2325649;56;3583;-88
2023/04/17 10:34:36;1141589.00;3.81;1984.96;110282.00;0.37;191.32;;;;;14.70;1.00;;;;;;2286655;60;1429;-89
2023/04/17 10:55:21;511253.00;1.70;881.20;0.00;0.00;0.62;;;;;14.00;1.00;;;;;;2277549;61;1409;-88
2023/04/17 10:58:03;107025.00;0.36;185.70;0.00;0.00;0.62;;;;;13.80;1.00;;;;;;2275672;61;1261;-89
2023/04/17 11:05:31;460255.00;1.53;793.42;0.00;0.00;0.62;;;;;13.70;1.00;;;;;;2277839;61;1296;-89
2023/04/17 11:07:58;133008.00;0.44;230.52;0.00;0.00;0.62;;;;;13.60;1.00;;;;;;2276408;61;838;-87
2023/04/17 11:10:27;73734.00;0.25;128.21;0.00;0.00;0.62;;;;;13.50;1.00;;;;;;2276179;61;1998;-89
2023/04/17 11:15:28;872834.00;2.91;1508.46;0.00;0.00;0.62;;;;;12.90;2.20;;;;;;2352070;40;3460;-88
2023/04/17 12:03:35;644192.00;2.15;1110.59;0.00;0.00;0.62;;;;;13.30;5.00;;;;;;2274285;56;3746;-87
2023/04/17 12:38:55;788200.00;2.63;1360.55;0.00;0.00;0.62;;;;;14.10;1.00;;;;;;2266887;61;993;-89
2023/04/17 16:38:47;929029.00;3.10;1607.16;0.00;0.00;0.62;;;;;13.50;1.00;;;;;;2170737;40;3416;-87
2023/04/17 19:04:58;648958.00;2.16;1118.83;0.00;0.00;0.62;;;;;12.20;1.00;;;;;;2270678;61;1161;-90
2023/04/17 20:19:42;886115.00;2.95;1531.75;0.00;0.00;0.62;;;;;12.30;3.20;;;;;;2266988;61;969;-92
2023/04/17 20:29:51;631560.00;2.11;1088.75;0.00;0.00;0.62;;;;;11.90;4.70;;;;;;2271241;61;1033;-92
2023/04/17 23:06:55;356150.00;1.19;614.43;0.00;0.00;0.62;;;;;10.90;1.40;;;;;;2426869;40;3333;31
2023/04/17 23:56:24;2337131.00;7.79;4341.11;239610.00;0.80;414.08;;;;;10.80;1.20;;;;;;2270452;61;1304;-92
